createdAt,value
2018-09-06T00:01:13.577Z,13.89
2018-09-06T00:03:42.301Z,13.77
2018-09-06T00:06:10.923Z,13.64
2018-09-06T00:08:39.550Z,13.57
2018-09-06T00:11:08.239Z,13.57
2018-09-06T00:13:37.420Z,13.53
2018-09-06T00:16:06.468Z,13.43
2018-09-06T00:18:35.056Z,13.34
2018-09-06T00:21:03.704Z,13.29
2018-09-06T00:23:32.288Z,13.26
2018-09-06T00:26:00.938Z,13.22
2018-09-06T00:28:29.524Z,13.17
2018-09-06T00:30:58.116Z,13.15
2018-09-06T00:33:26.704Z,13.14
2018-09-06T00:35:55.337Z,13.27
2018-09-06T00:38:24.026Z,13.43
2018-09-06T00:40:52.680Z,13.50
2018-09-06T00:43:21.277Z,13.55
2018-09-06T00:45:49.921Z,13.62
2018-09-06T00:48:18.608Z,13.52
2018-09-06T00:50:47.324Z,13.41
2018-09-06T00:53:15.933Z,13.32
2018-09-06T00:55:44.532Z,13.25
2018-09-06T00:58:13.141Z,13.19
2018-09-06T01:00:41.764Z,13.14
2018-09-06T01:03:10.410Z,13.11
2018-09-06T01:05:39.028Z,13.08
2018-09-06T01:08:07.645Z,13.11
2018-09-06T01:10:36.273Z,13.10
2018-09-06T01:13:04.881Z,13.10
2018-09-06T01:15:33.529Z,13.05
2018-09-06T01:18:02.136Z,13.01
2018-09-06T01:20:30.773Z,13.02
2018-09-06T01:22:59.381Z,12.97
2018-09-06T01:25:32.855Z,12.93
2018-09-06T01:28:01.505Z,12.94
2018-09-06T01:30:30.105Z,12.92
2018-09-06T01:32:58.702Z,12.88
2018-09-06T01:35:27.315Z,12.88
2018-09-06T01:37:55.933Z,12.86
2018-09-06T01:40:24.569Z,12.81
2018-09-06T01:42:53.318Z,12.76
2018-09-06T01:45:21.903Z,12.72
2018-09-06T01:47:50.484Z,12.66
2018-09-06T01:50:19.084Z,12.63
2018-09-06T01:52:47.740Z,12.59
2018-09-06T01:55:16.349Z,12.56
2018-09-06T01:57:44.945Z,12.53
2018-09-06T02:00:13.892Z,12.52
2018-09-06T02:02:42.480Z,12.52
2018-09-06T02:05:14.577Z,12.53
2018-09-06T02:07:43.182Z,12.55
2018-09-06T02:10:12.403Z,12.55
2018-09-06T02:12:41.396Z,12.58
2018-09-06T02:15:09.992Z,12.63
2018-09-06T02:17:38.623Z,12.60
2018-09-06T02:20:07.527Z,12.61
2018-09-06T02:22:36.391Z,12.75
2018-09-06T02:25:05.408Z,12.81
2018-09-06T02:27:34.009Z,12.90
2018-09-06T02:30:02.646Z,12.86
2018-09-06T02:32:31.254Z,12.74
2018-09-06T02:34:59.892Z,12.66
2018-09-06T02:37:28.476Z,12.57
2018-09-06T02:39:57.120Z,12.48
2018-09-06T02:42:25.789Z,12.52
2018-09-06T02:44:54.540Z,12.58
2018-09-06T02:47:23.117Z,12.60
2018-09-06T02:49:56.944Z,12.63
2018-09-06T02:52:25.534Z,12.54
2018-09-06T02:54:54.144Z,12.55
2018-09-06T02:57:22.732Z,12.56
2018-09-06T02:59:51.360Z,12.64
2018-09-06T03:02:19.963Z,12.65
2018-09-06T03:04:48.551Z,12.56
2018-09-06T03:07:17.512Z,12.47
2018-09-06T03:09:46.196Z,12.41
2018-09-06T03:12:14.960Z,12.33
2018-09-06T03:14:43.572Z,12.25
2018-09-06T03:17:12.238Z,12.20
2018-09-06T03:19:40.827Z,12.14
2018-09-06T03:22:09.429Z,12.11
2018-09-06T03:24:38.009Z,12.06
2018-09-06T03:27:07.090Z,12.03
2018-09-06T03:29:35.814Z,12.01
2018-09-06T03:32:04.400Z,11.99
2018-09-06T03:34:33.084Z,12.02
2018-09-06T03:37:01.703Z,12.01
2018-09-06T03:39:30.893Z,11.95
2018-09-06T03:41:59.723Z,11.94
2018-09-06T03:44:28.320Z,11.96
2018-09-06T03:46:56.926Z,11.91
2018-09-06T03:49:25.512Z,11.89
2018-09-06T03:51:54.556Z,11.87
2018-09-06T03:54:23.168Z,12.08
2018-09-06T03:56:51.780Z,12.10
2018-09-06T03:59:20.401Z,12.03
2018-09-06T04:01:48.998Z,11.99
2018-09-06T04:04:18.439Z,11.97
2018-09-06T04:06:47.092Z,11.91
2018-09-06T04:09:15.683Z,11.97
2018-09-06T04:11:44.273Z,11.95
2018-09-06T04:14:12.857Z,11.99
2018-09-06T04:16:41.450Z,12.00
2018-09-06T04:19:10.202Z,12.02
2018-09-06T04:21:39.869Z,11.97
2018-09-06T04:24:08.513Z,11.98
2018-09-06T04:26:37.316Z,12.30
2018-09-06T04:29:06.031Z,12.28
2018-09-06T04:31:34.669Z,12.24
2018-09-06T04:34:03.644Z,12.22
2018-09-06T04:36:32.292Z,12.24
2018-09-06T04:39:01.028Z,12.24
2018-09-06T04:41:29.667Z,12.26
2018-09-06T04:43:58.329Z,12.32
2018-09-06T04:46:26.952Z,12.40
2018-09-06T04:48:55.662Z,12.47
2018-09-06T04:51:24.333Z,12.55
2018-09-06T04:53:52.919Z,12.78
2018-09-06T04:56:21.580Z,12.85
2018-09-06T04:58:50.529Z,12.92
2018-09-06T05:01:19.135Z,12.97
2018-09-06T05:03:47.759Z,13.05
2018-09-06T05:06:16.744Z,13.20
2018-09-06T05:08:45.407Z,13.35
2018-09-06T05:11:14.216Z,13.49
2018-09-06T05:13:43.284Z,13.65
2018-09-06T05:16:11.872Z,13.84
2018-09-06T05:18:40.478Z,14.03
2018-09-06T05:21:09.831Z,14.20
2018-09-06T05:23:38.447Z,14.45
2018-09-06T05:26:07.133Z,14.72
2018-09-06T05:28:35.916Z,14.95
2018-09-06T05:31:04.527Z,15.26
2018-09-06T05:33:33.164Z,15.48
2018-09-06T05:36:01.987Z,15.59
2018-09-06T05:38:30.794Z,15.69
2018-09-06T05:40:59.420Z,15.86
2018-09-06T05:43:28.088Z,16.12
2018-09-06T05:45:56.712Z,16.34
2018-09-06T05:48:25.359Z,16.57
2018-09-06T05:50:54.036Z,16.91
2018-09-06T05:53:22.921Z,17.18
2018-09-06T05:55:51.792Z,17.42
2018-09-06T05:58:21.271Z,17.72
2018-09-06T06:00:50.527Z,17.99
2018-09-06T06:03:19.346Z,18.15
2018-09-06T06:05:48.049Z,18.37
2018-09-06T06:08:28.000Z,18.63
2018-09-06T06:10:56.978Z,19.09
2018-09-06T06:13:25.736Z,19.71
2018-09-06T06:15:54.334Z,21.06
2018-09-06T06:18:23.721Z,23.10
2018-09-06T06:20:52.984Z,24.98
2018-09-06T06:23:22.557Z,26.85
2018-09-06T06:25:51.733Z,28.63
2018-09-06T06:28:20.915Z,30.28
2018-09-06T06:30:50.082Z,31.54
2018-09-06T06:33:19.249Z,32.76
2018-09-06T06:35:48.925Z,33.90
2018-09-06T06:38:18.114Z,34.81
2018-09-06T06:40:47.288Z,35.66
2018-09-06T06:43:16.823Z,36.15
2018-09-06T06:45:46.066Z,36.40
2018-09-06T06:48:15.285Z,36.62
2018-09-06T06:50:44.493Z,36.70
2018-09-06T06:53:13.684Z,36.68
2018-09-06T06:55:42.879Z,36.44
2018-09-06T06:58:12.044Z,36.33
2018-09-06T07:00:42.232Z,36.64
2018-09-06T07:03:12.952Z,37.28
2018-09-06T07:05:42.881Z,37.71
2018-09-06T07:08:12.488Z,37.84
2018-09-06T07:10:41.804Z,37.79
2018-09-06T07:13:10.814Z,38.36
2018-09-06T07:15:39.773Z,38.96
2018-09-06T07:18:08.758Z,39.41
2018-09-06T07:20:37.874Z,39.59
2018-09-06T07:23:07.116Z,39.74
2018-09-06T07:25:36.048Z,40.05
2018-09-06T07:28:05.008Z,40.13
2018-09-06T07:30:34.282Z,39.65
2018-09-06T07:33:03.661Z,39.89
2018-09-06T07:35:32.837Z,39.70
2018-09-06T07:38:01.752Z,40.35
2018-09-06T07:40:30.970Z,39.73
2018-09-06T07:42:59.864Z,39.54
2018-09-06T07:45:28.952Z,40.00
2018-09-06T07:47:57.847Z,40.22
2018-09-06T07:50:26.774Z,40.87
2018-09-06T07:52:55.665Z,41.66
2018-09-06T07:55:24.572Z,42.06
2018-09-06T07:57:53.544Z,42.40
2018-09-06T08:00:22.461Z,42.39
2018-09-06T08:02:52.223Z,42.51
2018-09-06T08:05:21.103Z,42.66
2018-09-06T08:07:50.076Z,42.30
2018-09-06T08:10:19.049Z,42.40
2018-09-06T08:12:47.961Z,42.26
2018-09-06T08:15:17.188Z,42.18
2018-09-06T08:17:46.086Z,41.02
2018-09-06T08:20:15.024Z,40.28
2018-09-06T08:22:43.958Z,40.56
2018-09-06T08:25:12.953Z,40.63
2018-09-06T08:27:41.827Z,40.73
2018-09-06T08:30:10.769Z,40.44
2018-09-06T08:32:39.656Z,40.97
2018-09-06T08:35:08.669Z,41.05
2018-09-06T08:37:37.557Z,40.65
2018-09-06T08:40:06.464Z,40.63
2018-09-06T08:42:35.357Z,40.52
2018-09-06T08:45:04.307Z,40.68
2018-09-06T08:47:33.323Z,40.17
2018-09-06T08:50:02.355Z,38.74
2018-09-06T08:52:31.623Z,36.79
2018-09-06T08:55:00.984Z,35.43
2018-09-06T08:57:30.158Z,34.49
2018-09-06T08:59:59.679Z,33.75
2018-09-06T09:02:28.960Z,33.15
2018-09-06T09:04:58.247Z,32.49
2018-09-06T09:07:27.434Z,31.87
2018-09-06T09:09:56.820Z,31.49
2018-09-06T09:12:26.123Z,31.29
2018-09-06T09:14:55.460Z,30.54
2018-09-06T09:17:24.626Z,29.96
2018-09-06T09:19:53.823Z,29.72
2018-09-06T09:22:23.061Z,29.75
2018-09-06T09:24:52.420Z,29.78
2018-09-06T09:27:21.625Z,29.62
2018-09-06T09:29:50.809Z,29.56
2018-09-06T09:32:20.012Z,29.66
2018-09-06T09:34:49.546Z,29.88
2018-09-06T09:37:18.809Z,29.88
2018-09-06T09:39:48.320Z,29.89
2018-09-06T09:42:17.543Z,29.61
2018-09-06T09:44:46.706Z,29.45
2018-09-06T09:49:44.107Z,28.54
2018-09-06T09:52:13.333Z,27.91
2018-09-06T09:54:42.497Z,27.42
2018-09-06T09:57:11.725Z,26.89
2018-09-06T09:59:41.055Z,26.62
2018-09-06T10:02:15.538Z,26.24
2018-09-06T10:04:50.124Z,25.94
2018-09-06T10:07:24.648Z,25.67
2018-09-06T10:09:53.832Z,25.50
2018-09-06T10:12:23.106Z,25.52
2018-09-06T10:14:52.276Z,25.67
2018-09-06T10:17:21.432Z,25.78
2018-09-06T10:19:50.621Z,25.88
2018-09-06T10:22:19.799Z,25.89
2018-09-06T10:24:48.995Z,25.91
2018-09-06T10:27:18.196Z,25.91
2018-09-06T10:29:48.139Z,26.03
2018-09-06T10:32:17.304Z,26.25
2018-09-06T10:34:46.556Z,26.31
2018-09-06T10:37:16.764Z,26.39
2018-09-06T10:39:46.837Z,26.40
2018-09-06T10:42:16.055Z,26.52
2018-09-06T10:44:46.077Z,26.54
2018-09-06T10:47:15.597Z,26.61
2018-09-06T10:49:44.788Z,26.52
2018-09-06T10:52:14.030Z,26.56
2018-09-06T10:54:43.236Z,26.56
2018-09-06T10:57:12.398Z,26.70
2018-09-06T10:59:42.021Z,26.73
2018-09-06T11:02:11.583Z,26.78
2018-09-06T11:04:41.074Z,26.77
2018-09-06T11:07:10.630Z,26.82
2018-09-06T11:09:40.187Z,26.68
2018-09-06T11:12:09.450Z,26.59
2018-09-06T11:14:38.771Z,26.71
2018-09-06T11:17:08.443Z,26.96
2018-09-06T11:19:37.656Z,27.27
2018-09-06T11:22:07.442Z,27.44
2018-09-06T11:24:37.757Z,27.31
2018-09-06T11:27:07.077Z,26.89
2018-09-06T11:29:36.343Z,26.63
2018-09-06T11:32:05.683Z,26.65
2018-09-06T11:34:35.144Z,26.86
2018-09-06T11:37:04.645Z,27.14
2018-09-06T11:39:33.848Z,27.44
2018-09-06T11:42:03.289Z,27.69
2018-09-06T11:44:32.585Z,27.78
2018-09-06T11:47:01.847Z,27.96
2018-09-06T11:49:31.249Z,27.99
2018-09-06T11:52:00.470Z,27.89
2018-09-06T11:54:29.647Z,27.75
2018-09-06T11:56:59.240Z,27.64
2018-09-06T11:59:28.478Z,27.50
2018-09-06T12:01:58.145Z,27.36
2018-09-06T12:04:27.459Z,27.42
2018-09-06T12:06:56.693Z,27.46
2018-09-06T12:09:26.202Z,27.30
2018-09-06T12:11:55.494Z,27.29
2018-09-06T12:14:24.930Z,27.35
2018-09-06T12:16:54.286Z,27.49
2018-09-06T12:19:23.582Z,27.52
2018-09-06T12:21:53.034Z,27.70
2018-09-06T12:24:22.284Z,28.00
2018-09-06T12:26:51.488Z,28.20
2018-09-06T12:29:20.727Z,28.28
2018-09-06T12:31:50.008Z,28.47
2018-09-06T12:34:19.293Z,28.69
2018-09-06T12:36:48.592Z,28.74
2018-09-06T12:39:17.873Z,28.82
2018-09-06T12:41:47.696Z,28.82
2018-09-06T12:44:16.876Z,28.90
2018-09-06T12:46:46.124Z,28.97
2018-09-06T12:49:15.309Z,28.78
2018-09-06T12:51:44.487Z,28.35
2018-09-06T12:54:13.783Z,27.87
2018-09-06T12:56:43.029Z,27.62
2018-09-06T12:59:12.409Z,27.45
2018-09-06T13:01:41.668Z,27.35
2018-09-06T13:04:10.935Z,27.05
2018-09-06T13:06:40.146Z,26.92
2018-09-06T13:09:09.725Z,26.88
2018-09-06T13:11:39.302Z,26.79
2018-09-06T13:14:08.496Z,26.69
2018-09-06T13:16:37.693Z,26.48
2018-09-06T13:19:06.947Z,26.28
2018-09-06T13:21:36.426Z,26.15
2018-09-06T13:24:05.716Z,25.88
2018-09-06T13:26:34.961Z,25.71
2018-09-06T13:29:04.459Z,25.59
2018-09-06T13:31:33.701Z,25.51
2018-09-06T13:34:02.932Z,25.46
2018-09-06T13:36:32.177Z,25.35
2018-09-06T13:39:01.426Z,25.36
2018-09-06T13:41:31.007Z,25.35
2018-09-06T13:44:00.305Z,25.30
2018-09-06T13:46:29.556Z,25.28
2018-09-06T13:48:58.954Z,25.24
2018-09-06T13:51:28.189Z,25.28
2018-09-06T13:53:57.386Z,25.26
2018-09-06T13:56:26.597Z,25.26
2018-09-06T13:58:56.075Z,25.22
2018-09-06T14:01:25.325Z,25.17
2018-09-06T14:03:54.530Z,25.11
2018-09-06T14:06:24.761Z,25.08
2018-09-06T14:08:53.986Z,25.09
2018-09-06T14:11:23.241Z,25.11
2018-09-06T14:13:52.535Z,25.23
2018-09-06T14:16:21.828Z,25.31
2018-09-06T14:18:51.172Z,25.33
2018-09-06T14:21:22.231Z,25.34
2018-09-06T14:23:51.458Z,25.40
2018-09-06T14:26:20.731Z,25.32
2018-09-06T14:28:49.993Z,25.27
2018-09-06T14:31:19.361Z,25.22
2018-09-06T14:33:48.590Z,25.19
2018-09-06T14:36:17.888Z,25.18
2018-09-06T14:38:47.301Z,25.22
2018-09-06T14:41:16.673Z,25.20
2018-09-06T14:43:45.925Z,25.17
2018-09-06T14:46:15.151Z,25.17
2018-09-06T14:48:44.361Z,25.18
2018-09-06T14:51:13.641Z,25.18
2018-09-06T14:53:42.891Z,25.21
2018-09-06T14:56:12.130Z,25.20
2018-09-06T14:58:41.412Z,25.23
2018-09-06T15:01:10.714Z,25.20
2018-09-06T15:03:39.960Z,25.23
2018-09-06T15:06:09.248Z,25.16
2018-09-06T15:08:38.473Z,25.10
2018-09-06T15:11:07.795Z,25.06
2018-09-06T15:13:37.102Z,25.04
2018-09-06T15:16:06.505Z,25.09
2018-09-06T15:18:35.964Z,25.11
2018-09-06T15:21:05.141Z,25.14
2018-09-06T15:23:34.346Z,25.09
2018-09-06T15:26:03.532Z,25.08
2018-09-06T15:28:32.697Z,25.18
2018-09-06T15:31:03.836Z,25.16
2018-09-06T15:33:32.997Z,25.11
2018-09-06T15:36:02.205Z,25.04
2018-09-06T15:38:31.378Z,25.03
2018-09-06T15:41:00.556Z,25.05
2018-09-06T15:43:29.820Z,25.02
2018-09-06T15:45:59.107Z,24.94
2018-09-06T15:48:28.336Z,25.01
2018-09-06T15:50:57.597Z,24.98
2018-09-06T15:53:26.772Z,24.92
2018-09-06T15:55:56.061Z,24.93
2018-09-06T15:58:25.368Z,24.94
2018-09-06T16:00:54.848Z,24.85
2018-09-06T16:03:24.017Z,24.82
2018-09-06T16:05:53.171Z,24.90
2018-09-06T16:08:22.341Z,24.78
2018-09-06T16:10:51.492Z,24.74
2018-09-06T16:13:21.004Z,24.62
2018-09-06T16:15:50.221Z,24.53
2018-09-06T16:18:19.460Z,24.50
2018-09-06T16:20:48.639Z,24.43
2018-09-06T16:23:17.806Z,24.26
2018-09-06T16:25:47.032Z,24.15
2018-09-06T16:28:16.204Z,24.06
2018-09-06T16:30:45.396Z,23.96
2018-09-06T16:33:14.576Z,23.97
2018-09-06T16:35:43.760Z,24.02
2018-09-06T16:38:13.010Z,23.98
2018-09-06T16:40:42.186Z,23.96
2018-09-06T16:43:11.366Z,23.89
2018-09-06T16:45:40.551Z,23.80
2018-09-06T16:48:09.754Z,23.67
2018-09-06T16:50:39.135Z,23.53
2018-09-06T16:53:08.303Z,23.28
2018-09-06T16:55:37.565Z,23.24
2018-09-06T16:58:06.716Z,23.16
2018-09-06T17:00:35.925Z,23.08
2018-09-06T17:03:05.596Z,22.96
2018-09-06T17:05:34.785Z,22.78
2018-09-06T17:08:03.954Z,22.68
2018-09-06T17:10:33.144Z,22.67
2018-09-06T17:13:02.377Z,22.61
2018-09-06T17:15:31.613Z,22.43
2018-09-06T17:18:00.847Z,22.22
2018-09-06T17:20:30.095Z,22.03
2018-09-06T17:22:59.462Z,21.80
2018-09-06T17:25:28.133Z,21.61
2018-09-06T17:27:57.429Z,21.49
2018-09-06T17:30:26.630Z,21.39
2018-09-06T17:32:55.920Z,21.38
2018-09-06T17:35:25.217Z,21.41
2018-09-06T17:37:53.845Z,21.34
2018-09-06T17:40:23.195Z,21.25
2018-09-06T17:42:51.933Z,21.14
2018-09-06T17:45:20.549Z,21.11
2018-09-06T17:47:49.314Z,20.95
2018-09-06T17:50:18.103Z,20.85
2018-09-06T17:52:46.755Z,20.70
2018-09-06T17:55:15.365Z,20.49
2018-09-06T17:57:43.968Z,20.28
2018-09-06T18:00:12.595Z,20.21
2018-09-06T18:02:41.270Z,20.32
2018-09-06T18:05:10.094Z,20.27
2018-09-06T18:07:38.734Z,20.31
2018-09-06T18:10:07.408Z,20.30
2018-09-06T18:12:36.314Z,20.11
2018-09-06T18:15:05.517Z,19.99
2018-09-06T18:17:34.289Z,19.78
2018-09-06T18:20:03.013Z,19.71
2018-09-06T18:22:31.629Z,19.74
2018-09-06T18:25:00.650Z,19.62
2018-09-06T18:27:29.313Z,19.47
2018-09-06T18:29:58.032Z,19.27
2018-09-06T18:32:27.040Z,19.17
2018-09-06T18:34:55.648Z,19.05
2018-09-06T18:37:24.274Z,19.06
2018-09-06T18:39:52.944Z,19.03
2018-09-06T18:42:21.608Z,19.03
2018-09-06T18:44:50.222Z,18.95
2018-09-06T18:47:19.085Z,19.00
2018-09-06T18:49:47.725Z,18.94
2018-09-06T18:52:16.488Z,18.91
2018-09-06T18:54:45.482Z,18.83
2018-09-06T18:57:14.673Z,18.67
2018-09-06T18:59:43.407Z,18.74
2018-09-06T19:02:12.165Z,18.85
2018-09-06T19:04:40.860Z,18.83
2018-09-06T19:07:09.497Z,18.75
2018-09-06T19:09:38.106Z,18.57
2018-09-06T19:12:07.057Z,18.45
2018-09-06T19:14:35.718Z,18.43
2018-09-06T19:17:04.332Z,18.30
2018-09-06T19:19:32.967Z,18.26
2018-09-06T19:22:01.630Z,18.24
2018-09-06T19:24:30.252Z,18.19
2018-09-06T19:26:58.844Z,18.14
2018-09-06T19:29:27.485Z,18.11
2018-09-06T19:31:56.327Z,17.98
2018-09-06T19:34:25.069Z,17.93
2018-09-06T19:36:53.680Z,17.92
2018-09-06T19:39:22.317Z,17.77
2018-09-06T19:41:50.922Z,17.70
2018-09-06T19:44:19.731Z,17.77
2018-09-06T19:46:48.354Z,17.70
2018-09-06T19:49:16.971Z,17.61
2018-09-06T19:51:45.601Z,17.65
2018-09-06T19:54:14.313Z,17.62
2018-09-06T19:56:43.129Z,17.60
2018-09-06T19:59:11.741Z,17.62
2018-09-06T20:01:40.745Z,17.66
2018-09-06T20:04:09.379Z,17.69
2018-09-06T20:06:38.053Z,17.67
2018-09-06T20:09:07.618Z,17.62
2018-09-06T20:11:36.264Z,17.63
2018-09-06T20:14:04.883Z,17.63
2018-09-06T20:16:33.480Z,17.58
2018-09-06T20:19:02.149Z,17.53
2018-09-06T20:21:30.815Z,17.55
2018-09-06T20:23:59.428Z,17.54
2018-09-06T20:26:28.127Z,17.45
2018-09-06T20:28:56.748Z,17.46
2018-09-06T20:31:25.827Z,17.39
2018-09-06T20:33:54.490Z,17.31
2018-09-06T20:36:23.198Z,17.38
2018-09-06T20:38:52.064Z,17.41
2018-09-06T20:41:20.681Z,17.35
2018-09-06T20:43:49.355Z,17.35
2018-09-06T20:46:17.974Z,17.32
2018-09-06T20:48:46.581Z,17.27
2018-09-06T20:51:15.181Z,17.14
2018-09-06T20:53:43.812Z,17.08
2018-09-06T20:56:12.405Z,16.90
2018-09-06T20:58:41.069Z,16.80
2018-09-06T21:01:09.715Z,16.66
2018-09-06T21:03:38.380Z,16.62
2018-09-06T21:06:07.048Z,16.64
2018-09-06T21:08:35.726Z,16.62
2018-09-06T21:11:04.806Z,16.69
2018-09-06T21:13:33.429Z,16.69
2018-09-06T21:16:02.129Z,16.67
2018-09-06T21:18:30.806Z,16.58
2018-09-06T21:20:59.424Z,16.50
2018-09-06T21:23:28.106Z,16.45
2018-09-06T21:25:56.882Z,16.40
2018-09-06T21:28:25.493Z,16.41
2018-09-06T21:30:54.133Z,16.43
2018-09-06T21:33:22.785Z,16.40
2018-09-06T21:35:51.437Z,16.31
2018-09-06T21:38:20.053Z,16.32
2018-09-06T21:40:48.661Z,16.29
2018-09-06T21:43:17.342Z,16.21
2018-09-06T21:45:46.106Z,16.26
2018-09-06T21:48:14.799Z,16.25
2018-09-06T21:50:43.421Z,16.14
2018-09-06T21:53:12.048Z,16.04
2018-09-06T21:55:40.773Z,15.99
2018-09-06T21:58:09.395Z,15.93
2018-09-06T22:00:38.143Z,16.08
2018-09-06T22:03:12.117Z,16.15
2018-09-06T22:05:40.764Z,16.12
2018-09-06T22:08:09.604Z,16.14
2018-09-06T22:10:38.291Z,16.02
2018-09-06T22:13:06.898Z,16.00
2018-09-06T22:15:35.560Z,15.97
2018-09-06T22:18:04.225Z,15.97
2018-09-06T22:20:32.880Z,15.98
2018-09-06T22:23:01.521Z,15.86
2018-09-06T22:25:30.128Z,15.81
2018-09-06T22:27:58.746Z,15.95
2018-09-06T22:30:27.703Z,15.93
2018-09-06T22:32:56.333Z,15.83
2018-09-06T22:35:24.946Z,15.83
2018-09-06T22:37:53.549Z,15.75
2018-09-06T22:40:22.144Z,15.71
2018-09-06T22:42:50.781Z,15.63
2018-09-06T22:45:19.394Z,15.56
2018-09-06T22:47:47.995Z,15.46
2018-09-06T22:50:16.635Z,15.50
2018-09-06T22:52:45.219Z,15.37
2018-09-06T22:55:13.808Z,15.30
2018-09-06T22:57:42.433Z,15.24
2018-09-06T23:00:11.032Z,15.23
2018-09-06T23:02:44.757Z,15.23
2018-09-06T23:05:13.706Z,15.14
2018-09-06T23:07:42.284Z,15.14
2018-09-06T23:10:11.154Z,15.20
2018-09-06T23:12:39.743Z,15.19
2018-09-06T23:15:08.380Z,15.21
2018-09-06T23:17:37.065Z,15.17
2018-09-06T23:20:05.705Z,15.10
2018-09-06T23:22:38.363Z,15.03
2018-09-06T23:25:08.174Z,15.01
2018-09-06T23:27:36.793Z,14.97
2018-09-06T23:30:05.974Z,14.91
2018-09-06T23:32:34.865Z,14.85
2018-09-06T23:35:03.516Z,14.97
2018-09-06T23:37:32.093Z,15.09
2018-09-06T23:40:00.733Z,15.03
2018-09-06T23:42:29.348Z,14.82
2018-09-06T23:44:57.933Z,14.66
2018-09-06T23:47:26.528Z,14.69
2018-09-06T23:49:55.142Z,14.63
2018-09-06T23:52:23.763Z,14.57
2018-09-06T23:54:52.704Z,14.53
2018-09-06T23:57:21.282Z,14.49
2018-09-06T23:59:49.857Z,14.49
